Data for 01/13/2018

Time Sea-Level Adjusted Pressure Absolute Pressure Temperature Relative Humidity Dew Point   
(mb) (inHg) (mb) (inHg) (C) (F) (%) (C) (F)
00:05 1025 30.27 854 25.22 3 37.3 64 -3.3 26.1
00:10 1025 30.27 854 25.22 3 37.4 64 -3.1 26.4
00:15 1025 30.27 854 25.22 3 37.4 64 -3.2 26.3
00:20 1025 30.27 854 25.22 3.1 37.5 63 -3.2 26.2
00:25 1025 30.27 854 25.22 3 37.4 64 -3.1 26.4
00:30 1025 30.27 854 25.22 3 37.4 64 -3.1 26.4
00:35 1025 30.27 854 25.22 3 37.4 64 -3.1 26.4
00:40 1025 30.27 854 25.22 3 37.3 65 -2.9 26.7
00:45 1025 30.27 854 25.22 2.9 37.1 66 -2.8 27
00:50 1025 30.27 854 25.22 2.7 36.9 67 -2.9 26.8
00:55 1025 30.27 854 25.22 2.6 36.6 68 -2.8 27
01:00 1025 30.27 854 25.22 2.5 36.5 69 -2.6 27.3
01:05 1025 30.27 854 25.22 2.4 36.4 69 -2.6 27.3
01:10 1025 30.27 854 25.22 2.4 36.3 70 -2.6 27.3
01:15 1025 30.27 854 25.22 2.4 36.4 69 -2.8 27
01:20 1025 30.27 854 25.22 2.5 36.5 69 -2.7 27.2
01:25 1025 30.27 854 25.22 2.5 36.6 68 -2.7 27.1
01:30 1025 30.27 854 25.22 2.6 36.6 67 -2.8 26.9
01:35 1025 30.27 854 25.22 2.6 36.7 67 -2.9 26.8
01:40 1025 30.27 854 25.22 2.6 36.7 68 -2.8 27
01:45 1025 30.27 854 25.22 2.5 36.4 68 -2.8 27
01:50 1025 30.27 854 25.22 2.4 36.3 69 -2.7 27.1
01:55 1025 30.27 854 25.22 2.4 36.4 68 -2.9 26.7
02:00 1025 30.27 854 25.22 2.5 36.6 68 -2.8 27
02:05 1025 30.27 854 25.22 2.6 36.6 68 -2.8 27
02:10 1025 30.27 854 25.22 2.5 36.5 69 -2.7 27.2
02:15 1025 30.27 854 25.22 2.4 36.4 69 -2.7 27.1
02:20 1025 30.27 855 25.25 2.5 36.4 68 -2.8 27
02:25 1025 30.27 855 25.25 2.5 36.5 68 -2.8 27
02:30 1025 30.27 855 25.25 2.4 36.4 70 -2.4 27.6
02:35 1026 30.3 855 25.25 2.4 36.2 70 -2.6 27.4
02:40 1026 30.3 855 25.25 2.4 36.3 69 -2.7 27.2
02:45 1026 30.3 855 25.25 2.5 36.5 70 -2.4 27.6
02:50 1026 30.3 855 25.25 2.4 36.3 71 -2.4 27.7
02:55 1026 30.3 855 25.25 2.3 36.1 71 -2.5 27.6
03:00 1026 30.3 855 25.25 2.3 36.2 70 -2.6 27.4
03:05 1026 30.3 855 25.25 2.4 36.4 70 -2.4 27.6
03:10 1026 30.3 855 25.25 2.4 36.3 71 -2.2 28
03:15 1026 30.3 855 25.25 2.3 36.1 70 -2.6 27.4
03:20 1026 30.3 855 25.25 2.5 36.6 70 -2.5 27.6
03:25 1026 30.3 855 25.25 2.6 36.7 69 -2.5 27.4
03:30 1026 30.3 855 25.25 2.6 36.7 69 -2.4 27.6
03:35 1026 30.3 855 25.25 2.6 36.7 70 -2.4 27.7
03:40 1026 30.3 855 25.25 2.5 36.6 69 -2.6 27.4
03:45 1026 30.3 855 25.25 2.6 36.6 70 -2.3 27.9
03:50 1026 30.3 855 25.25 2.4 36.3 71 -2.4 27.8
03:55 1026 30.3 855 25.25 2.3 36.1 72 -2.3 27.9
04:00 1026 30.3 855 25.25 2.1 35.9 73 -2.2 28
04:05 1026 30.3 855 25.25 2 35.7 73 -2.4 27.8
04:10 1026 30.3 855 25.25 2.1 35.8 73 -2.3 27.8
04:15 1025 30.27 855 25.25 2.2 35.9 72 -2.3 27.9
04:20 1025 30.27 855 25.25 2.2 36 72 -2.2 28
04:25 1025 30.27 855 25.25 2.2 36 72 -2.3 27.9
04:30 1025 30.27 855 25.25 2.2 36 72 -2.3 27.8
04:35 1025 30.27 855 25.25 2.2 35.9 73 -2.2 28.1
04:40 1025 30.27 855 25.25 2.1 35.7 73 -2.2 28
04:45 1025 30.27 855 25.25 2 35.5 74 -2.2 28
04:50 1025 30.27 855 25.25 1.9 35.4 74 -2.3 27.9
04:55 1025 30.27 855 25.25 1.8 35.3 73 -2.4 27.6
05:00 1025 30.27 855 25.25 1.8 35.3 73 -2.6 27.3
05:05 1025 30.27 855 25.25 1.9 35.3 73 -2.5 27.6
05:10 1025 30.27 855 25.25 1.8 35.3 72 -2.6 27.3
05:15 1025 30.27 855 25.25 1.8 35.3 73 -2.5 27.5
05:20 1025 30.27 855 25.25 1.8 35.2 72 -2.8 27
05:25 1025 30.27 855 25.25 1.8 35.3 72 -2.8 27
05:30 1025 30.27 855 25.25 1.9 35.5 71 -2.8 26.9
05:35 1025 30.27 855 25.25 1.9 35.5 70 -2.9 26.8
05:40 1025 30.27 855 25.25 2 35.5 71 -2.7 27.2
05:45 1025 30.27 855 25.25 1.9 35.4 71 -2.9 26.7
05:50 1025 30.27 855 25.25 1.9 35.4 70 -2.9 26.8
05:55 1025 30.27 855 25.25 1.9 35.5 70 -3 26.6
06:00 1025 30.27 855 25.25 2 35.6 69 -3.1 26.4
06:05 1025 30.27 855 25.25 2.1 35.7 67 -3.5 25.8
06:10 1025 30.27 854 25.22 2.4 36.2 64 -3.8 25.1
06:15 1025 30.27 855 25.25 2.6 36.7 62 -4 24.8
06:20 1025 30.27 855 25.25 2.9 37.3 59 -4.4 24.1
06:25 1025 30.27 855 25.25 3.2 37.8 58 -4.2 24.4
06:30 1025 30.27 855 25.25 3.2 37.8 59 -3.9 24.9
06:35 1025 30.27 854 25.22 3.1 37.5 63 -3.4 26
06:40 1025 30.27 855 25.25 2.8 37 63 -3.5 25.8
06:45 1025 30.27 854 25.22 2.7 36.9 63 -3.6 25.5
06:50 1025 30.27 854 25.22 2.7 36.8 65 -3.3 26.1
06:55 1025 30.27 855 25.25 2.5 36.5 64 -3.6 25.6
07:00 1025 30.27 855 25.25 2.5 36.5 65 -3.4 25.9
07:05 1026 30.3 855 25.25 2.5 36.5 66 -3.3 26.1
07:10 1026 30.3 855 25.25 2.4 36.3 67 -3.2 26.2
07:15 1026 30.3 855 25.25 2.3 36.2 65 -3.6 25.6
07:20 1026 30.3 855 25.25 2.4 36.3 67 -3 26.5
07:25 1026 30.3 855 25.25 2.3 36.1 70 -2.6 27.3
07:30 1026 30.3 855 25.25 2.1 35.8 72 -2.4 27.7
07:35 1026 30.3 855 25.25 1.9 35.5 74 -2.2 28
07:40 1026 30.3 855 25.25 1.8 35.3 75 -2.1 28.2
07:45 1026 30.3 855 25.25 1.7 35 76 -2.1 28.2
07:50 1026 30.3 855 25.25 1.4 34.5 78 -2 28.4
07:55 1026 30.3 855 25.25 1.2 34.2 80 -1.9 28.6
08:00 1026 30.3 855 25.25 1.1 33.9 81 -1.9 28.6
08:05 1026 30.3 855 25.25 1 33.9 81 -1.9 28.6
08:10 1026 30.3 855 25.25 1 33.8 81 -1.9 28.6
08:15 1026 30.3 855 25.25 1 33.8 81 -1.9 28.6
08:20 1026 30.3 855 25.25 1 33.7 81 -1.9 28.6
08:25 1026 30.3 855 25.25 1 33.8 81 -1.9 28.6
08:30 1026 30.3 855 25.25 1.1 33.9 81 -1.8 28.7
08:35 1026 30.3 855 25.25 1.1 34 80 -1.9 28.6
08:40 1026 30.3 855 25.25 1.2 34.2 80 -1.8 28.7
08:45 1026 30.3 855 25.25 1.2 34.2 80 -1.8 28.8
08:50 1026 30.3 855 25.25 1.3 34.4 77 -2.2 28
08:55 1026 30.3 855 25.25 1.7 35.1 75 -2.2 28.1
09:00 1026 30.3 855 25.25 2 35.6 74 -2.2 28
09:05 1026 30.3 855 25.25 2.1 35.8 72 -2.4 27.7
09:10 1026 30.3 855 25.25 2.1 35.8 72 -2.4 27.8
09:15 1026 30.3 855 25.25 2.3 36.2 72 -2.1 28.1
09:20 1026 30.3 855 25.25 2.4 36.4 70 -2.4 27.6
09:25 1026 30.3 855 25.25 2.6 36.7 69 -2.5 27.5
09:30 1026 30.3 855 25.25 2.7 36.9 69 -2.4 27.6
09:35 1026 30.3 856 25.28 2.7 36.9 70 -2.2 28
09:40 1027 30.33 856 25.28 2.5 36.5 69 -2.6 27.4
09:45 1027 30.33 856 25.28 2.4 36.2 70 -2.6 27.4
09:50 1027 30.33 856 25.28 2.5 36.5 69 -2.6 27.3
09:55 1027 30.33 856 25.28 2.5 36.5 69 -2.6 27.3
10:00 1027 30.33 856 25.28 2.6 36.6 68 -2.8 27
10:05 1027 30.33 856 25.28 2.7 36.8 67 -2.8 26.9
10:10 1027 30.33 856 25.28 2.8 37.1 66 -2.8 27
10:15 1027 30.33 856 25.28 3 37.4 66 -2.8 26.9
10:20 1027 30.33 856 25.28 3.1 37.5 65 -2.9 26.9
10:25 1027 30.33 856 25.28 3.2 37.7 65 -2.8 27
10:30 1027 30.33 856 25.28 3.1 37.5 68 -2.2 28
10:35 1027 30.33 856 25.28 2.3 36.1 69 -2.8 27
10:40 1027 30.33 856 25.28 2.3 36.1 70 -2.7 27.1
10:45 1027 30.33 856 25.28 2.5 36.5 68 -2.9 26.8
10:50 1027 30.33 856 25.28 2.8 37 67 -2.8 26.9
10:55 1027 30.33 856 25.28 2.8 37.1 67 -2.7 27.2
11:00 1027 30.33 856 25.28 2.6 36.7 67 -2.8 26.9
11:05 1027 30.33 856 25.28 2.8 37 67 -2.8 26.9
11:10 1027 30.33 856 25.28 2.8 37 67 -2.7 27.1
11:15 1027 30.33 856 25.28 2.9 37.2 66 -2.7 27.1
11:20 1027 30.33 856 25.28 3.2 37.7 64 -3 26.7
11:25 1027 30.33 856 25.28 3.3 37.9 64 -2.8 27
11:30 1027 30.33 856 25.28 3.4 38 64 -2.9 26.8
11:35 1027 30.33 856 25.28 3.4 38.1 64 -2.8 27
11:40 1027 30.33 856 25.28 3.4 38.1 64 -2.8 26.9
11:45 1027 30.33 856 25.28 3.4 38.2 63 -2.9 26.7
11:50 1027 30.33 856 25.28 3.5 38.4 63 -2.9 26.8
11:55 1027 30.33 856 25.28 3.6 38.5 62 -3.1 26.5
12:00 1027 30.33 856 25.28 3.7 38.7 62 -2.8 26.9
12:05 1027 30.33 856 25.28 3.8 38.8 61 -3 26.6
12:10 1027 30.33 856 25.28 4 39.1 60 -3.1 26.4
12:15 1027 30.33 856 25.28 4.2 39.5 59 -3.1 26.4
12:20 1027 30.33 856 25.28 4.2 39.5 59 -3.2 26.3
12:25 1027 30.33 856 25.28 4.2 39.5 60 -3 26.6
12:30 1027 30.33 856 25.28 4.2 39.6 60 -2.8 26.9
12:35 1026 30.3 856 25.28 4.2 39.6 60 -2.8 26.9
12:40 1026 30.3 856 25.28 4.4 39.9 59 -2.9 26.7
12:45 1026 30.3 856 25.28 4.5 40.1 58 -3.1 26.3
12:50 1026 30.3 855 25.25 4.6 40.3 57 -3.3 26.1
12:55 1026 30.3 855 25.25 4.7 40.4 57 -3.2 26.3
13:00 1026 30.3 855 25.25 4.8 40.6 55 -3.5 25.7
13:05 1026 30.3 855 25.25 5 40.9 55 -3.3 26
13:10 1026 30.3 855 25.25 5.1 41.2 55 -3.3 26.1
13:15 1026 30.3 855 25.25 5.2 41.4 53 -3.6 25.5
13:20 1026 30.3 855 25.25 5.3 41.6 53 -3.4 25.8
13:25 1026 30.3 855 25.25 5.5 41.9 53 -3.4 25.8
13:30 1026 30.3 855 25.25 5.9 42.7 51 -3.3 26
13:35 1026 30.3 855 25.25 6.1 42.9 50 -3.6 25.5
13:40 1026 30.3 855 25.25 6.6 44 47 -3.7 25.3
13:45 1026 30.3 856 25.28 6.9 44.5 46 -3.9 25
13:50 1026 30.3 856 25.28 7 44.6 47 -3.6 25.5
13:55 1026 30.3 856 25.28 6.5 43.7 48 -3.7 25.3
14:00 1027 30.33 856 25.28 6.1 43.1 49 -3.8 25.2
14:05 1027 30.33 856 25.28 5.9 42.7 50 -3.6 25.5
14:10 1027 30.33 856 25.28 5.7 42.3 51 -3.6 25.5
14:15 1027 30.33 856 25.28 5.7 42.2 50 -4 24.7
14:20 1027 30.33 856 25.28 5.9 42.6 50 -3.6 25.5
14:25 1027 30.33 856 25.28 6 42.7 51 -3.4 25.8
14:30 1026 30.3 856 25.28 5.9 42.6 51 -3.4 25.9
14:35 1027 30.33 856 25.28 5.9 42.6 50 -3.7 25.4
14:40 1027 30.33 856 25.28 6 42.9 50 -3.7 25.3
14:45 1027 30.33 856 25.28 6.1 42.9 51 -3.4 25.9
14:50 1027 30.33 856 25.28 5.9 42.7 51 -3.5 25.7
14:55 1027 30.33 856 25.28 5.9 42.6 52 -3.2 26.3
15:00 1027 30.33 856 25.28 5.9 42.6 52 -3.3 26.1
15:05 1027 30.33 856 25.28 6.2 43.1 51 -3.1 26.3
15:10 1027 30.33 856 25.28 6.2 43.2 51 -3.1 26.4
15:15 1027 30.33 856 25.28 6.3 43.3 51 -3.1 26.5
15:20 1027 30.33 856 25.28 6.2 43.2 51 -3 26.6
15:25 1027 30.33 856 25.28 6.1 42.9 51 -3.3 26.1
15:30 1027 30.33 856 25.28 6.1 43 51 -3.4 25.9
15:35 1027 30.33 857 25.31 6 42.8 53 -2.9 26.8
15:40 1027 30.33 857 25.31 5.8 42.4 52 -3.2 26.2
15:45 1027 30.33 857 25.31 5.5 42 53 -3.3 26.1
15:50 1027 30.33 857 25.31 5.6 42 54 -3.1 26.5
15:55 1027 30.33 857 25.31 5.4 41.7 55 -2.9 26.7
16:00 1027 30.33 857 25.31 5.3 41.6 54 -3.2 26.2
16:05 1028 30.36 857 25.31 5.5 42 54 -3 26.6
16:10 1028 30.36 857 25.31 5.5 41.8 53 -3.2 26.2
16:15 1028 30.36 857 25.31 5.3 41.5 55 -3.1 26.4
16:20 1028 30.36 857 25.31 5.2 41.3 55 -3.1 26.5
16:25 1028 30.36 857 25.31 5.1 41.2 56 -2.9 26.8
16:30 1028 30.36 857 25.31 4.6 40.3 60 -2.6 27.4
16:35 1028 30.36 857 25.31 4 39.2 61 -2.9 26.9
16:40 1028 30.36 857 25.31 4.1 39.4 60 -3 26.7
16:45 1028 30.36 857 25.31 4.4 39.9 58 -3.1 26.4
16:50 1028 30.36 857 25.31 4.8 40.6 57 -3 26.6
16:55 1028 30.36 857 25.31 4.8 40.7 57 -3 26.6
17:00 1028 30.36 857 25.31 4.5 40.2 58 -3 26.5
17:05 1028 30.36 857 25.31 4.4 39.9 59 -2.9 26.8
17:10 1028 30.36 857 25.31 4.3 39.7 60 -2.9 26.8
17:15 1028 30.36 857 25.31 4.1 39.5 60 -3 26.6
17:20 1028 30.36 857 25.31 4.1 39.4 60 -2.9 26.8
17:25 1028 30.36 857 25.31 4 39.1 61 -3 26.7
17:30 1028 30.36 857 25.31 3.7 38.7 61 -3.2 26.3
17:35 1028 30.36 857 25.31 3.5 38.4 62 -3 26.5
17:40 1028 30.36 857 25.31 3.4 38.2 62 -3.1 26.4
17:45 1028 30.36 857 25.31 3.4 38.1 65 -2.6 27.3
17:50 1028 30.36 857 25.31 3.1 37.7 67 -2.5 27.6
17:55 1028 30.36 857 25.31 3.2 37.7 65 -2.7 27.1
18:00 1028 30.36 857 25.31 3.4 38.2 65 -2.5 27.5
18:05 1028 30.36 857 25.31 3.3 38 66 -2.4 27.7
18:10 1028 30.36 857 25.31 3.4 38.1 68 -2 28.4
18:15 1028 30.36 858 25.34 3.2 37.8 69 -2 28.5
18:20 1028 30.36 858 25.34 3.1 37.5 68 -2.3 27.8
18:25 1029 30.39 858 25.34 3.2 37.7 65 -2.8 26.9
18:30 1029 30.39 858 25.34 3.3 37.9 66 -2.4 27.7
18:35 1029 30.39 858 25.34 3.1 37.6 67 -2.4 27.7
18:40 1029 30.39 858 25.34 3.1 37.6 67 -2.4 27.8
18:45 1029 30.39 858 25.34 3.3 37.9 66 -2.4 27.7
18:50 1029 30.39 858 25.34 3.3 38 65 -2.5 27.4
18:55 1029 30.39 858 25.34 3.5 38.2 62 -3.1 26.5
19:00 1029 30.39 858 25.34 3.6 38.5 61 -3.3 26.1
19:05 1029 30.39 858 25.34 3.7 38.7 64 -2.4 27.6
19:10 1029 30.39 858 25.34 3.5 38.2 67 -2.2 28.1
19:15 1029 30.39 858 25.34 3.2 37.7 65 -2.7 27.2
19:20 1029 30.39 858 25.34 3.3 37.9 65 -2.6 27.3
19:25 1029 30.39 858 25.34 3.4 38.1 63 -2.9 26.7
19:30 1029 30.39 858 25.34 3.7 38.6 62 -3 26.6
19:35 1029 30.39 858 25.34 3.8 38.8 61 -2.9 26.7
19:40 1029 30.39 858 25.34 3.7 38.7 62 -2.9 26.7
19:45 1029 30.39 858 25.34 3.6 38.5 63 -2.7 27.2
19:50 1029 30.39 858 25.34 3.5 38.3 62 -3.1 26.4
19:55 1029 30.39 858 25.34 3.6 38.4 61 -3.2 26.2
20:00 1029 30.39 858 25.34 3.6 38.4 62 -3.1 26.4
20:05 1029 30.39 858 25.34 3.6 38.4 63 -2.9 26.8
20:10 1029 30.39 858 25.34 3.5 38.3 61 -3.3 26.1
20:15 1029 30.39 858 25.34 3.5 38.3 63 -3 26.7
20:20 1029 30.39 858 25.34 3.4 38 63 -3 26.5
20:25 1029 30.39 858 25.34 3.3 38 62 -3.2 26.2
20:30 1029 30.39 858 25.34 3.3 38 63 -3.1 26.5
20:35 1029 30.39 858 25.34 3.5 38.2 60 -3.6 25.5
20:40 1029 30.39 858 25.34 3.8 38.8 60 -3.4 25.9
20:45 1029 30.39 858 25.34 3.8 38.8 60 -3.3 26.1
20:50 1029 30.39 858 25.34 3.8 38.9 59 -3.3 26
20:55 1029 30.39 858 25.34 3.9 39 59 -3.4 25.9
21:00 1029 30.39 858 25.34 3.9 38.9 59 -3.4 25.9
21:05 1029 30.39 858 25.34 3.9 39.1 59 -3.4 25.9
21:10 1029 30.39 858 25.34 4 39.3 58 -3.4 25.9
21:15 1029 30.39 858 25.34 4 39.2 59 -3.3 26
21:20 1029 30.39 858 25.34 4 39.1 59 -3.4 25.9
21:25 1029 30.39 858 25.34 3.9 39.1 59 -3.4 25.8
21:30 1029 30.39 858 25.34 4 39.2 58 -3.5 25.8
21:35 1029 30.39 858 25.34 4.1 39.4 58 -3.5 25.7
21:40 1029 30.39 858 25.34 4.2 39.6 56 -3.7 25.3
21:45 1029 30.39 858 25.34 4.4 40 55 -3.7 25.3
21:50 1029 30.39 858 25.34 4.5 40.1 56 -3.5 25.6
21:55 1029 30.39 858 25.34 4.3 39.7 57 -3.4 25.9
22:00 1029 30.39 858 25.34 4.2 39.6 57 -3.5 25.7
22:05 1029 30.39 858 25.34 4.2 39.6 58 -3.3 26.1
22:10 1029 30.39 858 25.34 4.2 39.6 58 -3.3 26
22:15 1029 30.39 858 25.34 4.1 39.4 59 -3.2 26.3
22:20 1029 30.39 858 25.34 3.9 39.1 60 -3.1 26.4
22:25 1029 30.39 858 25.34 3.9 39 60 -3.2 26.3
22:30 1029 30.39 858 25.34 3.8 38.8 61 -3 26.5
22:35 1029 30.39 859 25.37 3.7 38.6 60 -3.4 26
22:40 1029 30.39 859 25.37 3.8 38.8 59 -3.5 25.7
22:45 1029 30.39 859 25.37 3.9 39 60 -3.3 26.1
22:50 1029 30.39 859 25.37 3.7 38.7 63 -2.6 27.3
22:55 1029 30.39 859 25.37 3.2 37.7 65 -2.8 27
23:00 1029 30.39 859 25.37 2.6 36.7 66 -3 26.6
23:05 1029 30.39 859 25.37 2.5 36.5 65 -3.4 25.8
23:10 1030 30.42 859 25.37 2.6 36.7 63 -3.8 25.1
23:15 1030 30.42 859 25.37 2.9 37.2 61 -3.9 25
23:20 1030 30.42 859 25.37 2.9 37.3 63 -3.3 26
23:25 1030 30.42 859 25.37 2.6 36.7 64 -3.5 25.7
23:30 1030 30.42 859 25.37 2.4 36.4 64 -3.6 25.5
23:35 1030 30.42 859 25.37 1.7 35.1 67 -3.8 25.2
23:40 1030 30.42 859 25.37 1.8 35.3 64 -4.4 24.1
23:45 1030 30.42 859 25.37 1.9 35.5 65 -3.9 25.1
23:50 1030 30.42 859 25.37 1.6 34.9 67 -3.8 25.2
23:55 1029 30.39 859 25.37 1.2 34.1 69 -3.8 25.1
24:00 1029 30.39 859 25.37 1.2 34.1 68 -4.2 24.5